Time;durP1;ratioP1;P1;durP2;ratioP2;P2;SDS_P1;SDS_P2;PMS_P1;PMS_P2;Temp;Humidity;BMP_temperature;BMP_pressure;BME280_temperature;BME280_humidity;BME280_pressure;Samples;Min_cycle;Max_cycle;Signal;HPM_P1;HPM_P2
2022/08/31 00:04:25;;;;;;;2.63;0.93;;;;;;;16.74;90.88;101359.94;5160245;28;20049;-78
2022/08/31 00:06:55;;;;;;;1.77;0.60;;;;;;;16.86;89.86;101359.34;5158972;28;20484;-77
2022/08/31 00:09:25;;;;;;;1.45;0.77;;;;;;;16.86;90.29;101364.63;5159723;28;20036;-77
2022/08/31 00:11:56;;;;;;;2.25;0.90;;;;;;;16.92;89.89;101357.25;5160020;28;20049;-76
2022/08/31 00:14:26;;;;;;;2.95;0.93;;;;;;;16.85;90.10;101355.00;5142229;28;20026;-77
2022/08/31 00:16:56;;;;;;;2.08;1.00;;;;;;;16.88;90.05;101352.19;5153886;28;20041;-77
2022/08/31 00:19:27;;;;;;;1.45;0.88;;;;;;;16.78;89.89;101351.78;5147811;28;20113;-77
2022/08/31 00:21:57;;;;;;;1.40;0.80;;;;;;;16.74;90.12;101354.66;5151113;28;20480;-77
2022/08/31 00:24:29;;;;;;;1.52;0.75;;;;;;;16.65;90.64;101355.09;5147128;28;20038;-77
2022/08/31 00:26:59;;;;;;;1.63;0.77;;;;;;;16.65;89.92;101364.78;5156153;28;20030;-78
2022/08/31 00:29:30;;;;;;;1.90;0.90;;;;;;;16.67;90.67;101357.66;5157972;28;20041;-75
2022/08/31 00:32:03;;;;;;;1.92;0.80;;;;;;;16.73;90.61;101355.59;5156111;28;20397;-75
2022/08/31 00:34:33;;;;;;;0.90;0.65;;;;;;;16.58;91.22;101358.94;5121090;28;20471;-77
2022/08/31 00:37:04;;;;;;;1.65;0.90;;;;;;;16.75;89.76;101366.09;5147394;28;20046;-78
2022/08/31 00:39:34;;;;;;;2.58;0.90;;;;;;;16.55;91.59;101359.09;5156778;28;20065;-76
2022/08/31 00:42:06;;;;;;;1.52;0.90;;;;;;;16.70;90.18;101353.09;5138622;28;20040;-76
2022/08/31 00:44:36;;;;;;;1.90;0.88;;;;;;;16.72;90.67;101356.50;5159734;28;20550;-77
2022/08/31 00:47:06;;;;;;;1.13;0.75;;;;;;;16.83;89.37;101348.94;5155726;28;20031;-77
2022/08/31 00:49:40;;;;;;;1.67;0.90;;;;;;;16.95;88.34;101349.19;5145952;28;20312;-76
2022/08/31 00:52:15;;;;;;;1.63;0.70;;;;;;;16.79;90.17;101347.38;5150838;28;20022;-77
2022/08/31 00:54:53;;;;;;;16.33;0.80;;;;;;;16.80;89.49;101349.94;5158733;28;20040;-78
2022/08/31 00:57:28;;;;;;;2.47;0.90;;;;;;;16.67;89.92;101350.59;5196075;22;20574;-75
2022/08/31 01:00:01;;;;;;;2.03;0.90;;;;;;;16.46;91.69;101354.28;5198208;28;20029;-74
2022/08/31 01:02:31;;;;;;;1.08;0.70;;;;;;;16.67;90.80;101361.16;5210893;28;20061;-74
2022/08/31 01:05:03;;;;;;;2.85;0.98;;;;;;;16.48;91.15;101356.81;5209208;28;20056;-73
2022/08/31 01:07:34;;;;;;;1.55;0.75;;;;;;;16.45;91.53;101351.69;5209163;28;20036;-73
2022/08/31 01:10:05;;;;;;;2.40;1.00;;;;;;;16.56;91.69;101355.53;5209049;28;20033;-74
2022/08/31 01:12:36;;;;;;;2.40;0.90;;;;;;;16.54;91.88;101356.56;5210035;28;20035;-74
2022/08/31 01:15:07;;;;;;;4.10;0.77;;;;;;;16.32;92.92;101350.53;5191844;28;20033;-74
2022/08/31 01:17:39;;;;;;;2.45;0.93;;;;;;;16.44;92.07;101348.22;5202361;28;20099;-73
2022/08/31 01:20:19;;;;;;;3.85;1.00;;;;;;;16.46;91.68;101349.00;5205319;28;20025;-74
2022/08/31 01:23:06;;;;;;;1.67;0.82;;;;;;;16.57;91.56;101344.03;5210268;28;20086;-75
2022/08/31 01:25:40;;;;;;;2.08;0.85;;;;;;;16.39;92.74;101346.72;5207341;28;20068;-73
2022/08/31 01:28:11;;;;;;;2.58;0.80;;;;;;;16.09;94.02;101351.59;5206455;28;20033;-73
2022/08/31 01:30:43;;;;;;;1.98;0.90;;;;;;;16.02;95.34;101354.59;5210464;28;20140;-74
2022/08/31 01:33:13;;;;;;;1.88;0.70;;;;;;;16.13;94.08;101350.53;5209343;28;20065;-73
2022/08/31 01:35:44;;;;;;;1.20;0.80;;;;;;;16.04;95.49;101345.66;5210286;28;20506;-74
2022/08/31 01:38:14;;;;;;;2.08;0.70;;;;;;;16.26;93.19;101351.69;5207101;28;20124;-74
2022/08/31 01:40:50;;;;;;;2.38;0.90;;;;;;;16.18;93.08;101350.31;5192377;28;20021;-74
2022/08/31 01:43:21;;;;;;;1.73;0.98;;;;;;;15.92;95.44;101351.50;5208118;28;20076;-75
2022/08/31 01:45:51;;;;;;;1.77;0.90;;;;;;;15.77;96.06;101349.56;5211249;28;20108;-74
2022/08/31 01:48:22;;;;;;;1.67;0.88;;;;;;;15.66;96.97;101357.06;5198525;28;20105;-73
2022/08/31 01:50:52;;;;;;;1.70;0.73;;;;;;;15.73;96.48;101355.88;5206735;28;20364;-74
2022/08/31 01:53:23;;;;;;;2.97;0.90;;;;;;;15.84;95.60;101358.88;5209041;28;20044;-75
2022/08/31 01:55:53;;;;;;;2.47;1.10;;;;;;;15.61;96.74;101361.69;5197122;28;20060;-74
2022/08/31 01:58:23;;;;;;;2.60;0.82;;;;;;;15.49;97.62;101351.69;5209837;28;20029;-74
2022/08/31 02:00:54;;;;;;;1.77;0.80;;;;;;;15.39;98.46;101355.63;5215116;28;20025;-74
2022/08/31 02:03:24;;;;;;;2.10;0.85;;;;;;;15.38;98.55;101358.34;5211973;28;20030;-74
2022/08/31 02:05:55;;;;;;;2.17;0.93;;;;;;;15.59;97.57;101347.72;5206984;28;20422;-75
2022/08/31 02:08:25;;;;;;;2.40;1.10;;;;;;;15.60;97.63;101361.75;5213377;28;20836;-74
2022/08/31 02:10:55;;;;;;;2.97;0.80;;;;;;;15.74;95.38;101354.94;5210640;28;20029;-74
2022/08/31 02:13:25;;;;;;;2.92;0.73;;;;;;;15.51;97.58;101352.47;5215066;28;20052;-75
2022/08/31 02:15:56;;;;;;;1.70;0.90;;;;;;;15.44;98.18;101358.94;5192628;28;20025;-74
2022/08/31 02:18:27;;;;;;;1.77;0.90;;;;;;;15.52;98.01;101362.06;5202793;28;20041;-74
2022/08/31 02:20:57;;;;;;;1.90;0.90;;;;;;;15.47;98.13;101364.06;5210166;28;20049;-74
2022/08/31 02:23:28;;;;;;;1.67;1.00;;;;;;;15.61;96.22;101361.69;5212435;28;20475;-74
2022/08/31 02:25:58;;;;;;;1.05;0.60;;;;;;;15.65;95.93;101370.31;5213022;28;20037;-73
2022/08/31 02:28:29;;;;;;;4.07;0.80;;;;;;;15.68;95.84;101371.03;5209811;28;20017;-74
2022/08/31 02:30:59;;;;;;;2.03;0.80;;;;;;;15.54;97.19;101370.78;5214252;28;20512;-74
2022/08/31 02:33:29;;;;;;;1.92;0.93;;;;;;;15.46;97.87;101369.38;5211624;28;20033;-73
2022/08/31 02:36:00;;;;;;;1.98;0.80;;;;;;;15.40;97.72;101367.03;5214351;28;20045;-74
2022/08/31 02:38:32;;;;;;;3.22;0.85;;;;;;;15.40;97.99;101362.59;5209250;28;20034;-73
2022/08/31 02:41:04;;;;;;;2.45;0.90;;;;;;;15.50;96.59;101363.94;5213176;28;20033;-74
2022/08/31 02:43:34;;;;;;;1.33;0.80;;;;;;;15.59;96.86;101358.28;5211878;28;20479;-74
2022/08/31 02:46:05;;;;;;;2.38;1.13;;;;;;;15.54;97.26;101357.59;5212971;28;20036;-72
2022/08/31 02:48:35;;;;;;;1.95;0.80;;;;;;;15.53;96.37;101363.78;5201098;28;20029;-74
2022/08/31 02:51:09;;;;;;;2.20;0.90;;;;;;;15.50;96.80;101368.34;5210374;28;20048;-74
2022/08/31 02:53:39;;;;;;;2.00;0.70;;;;;;;15.50;95.97;101368.34;5211687;28;20040;-74
2022/08/31 02:56:13;;;;;;;2.85;1.00;;;;;;;15.52;95.81;101369.97;5211850;28;20398;-74
2022/08/31 02:58:43;;;;;;;1.63;0.73;;;;;;;15.30;98.44;101371.81;5193637;28;20514;-74
2022/08/31 03:01:13;;;;;;;1.45;0.77;;;;;;;15.52;95.65;101369.16;5212189;28;20033;-74
2022/08/31 03:03:44;;;;;;;3.88;0.95;;;;;;;15.51;96.68;101364.81;5212357;28;20056;-74
2022/08/31 03:06:16;;;;;;;2.47;0.82;;;;;;;15.49;96.62;101367.47;5210457;28;20037;-73
2022/08/31 03:08:46;;;;;;;1.13;0.60;;;;;;;15.46;97.30;101370.25;5211123;28;20020;-74
2022/08/31 03:11:17;;;;;;;2.42;0.80;;;;;;;15.45;97.12;101368.53;5211239;28;20506;-74
2022/08/31 03:13:48;;;;;;;2.00;0.80;;;;;;;15.68;95.37;101359.66;5212949;28;20037;-74
2022/08/31 03:16:19;;;;;;;2.08;0.77;;;;;;;15.80;95.05;101361.72;5210454;28;20704;-74
2022/08/31 03:18:49;;;;;;;1.95;0.80;;;;;;;15.96;94.84;101358.34;5199740;28;20041;-73
2022/08/31 03:21:19;;;;;;;4.95;1.00;;;;;;;15.80;95.80;101346.78;5211150;28;20140;-74
2022/08/31 03:23:50;;;;;;;3.03;1.00;;;;;;;15.69;95.55;101351.66;5212618;28;20500;-73
2022/08/31 03:26:20;;;;;;;1.52;0.60;;;;;;;15.87;94.71;101331.53;5204642;28;20024;-74
2022/08/31 03:28:50;;;;;;;1.50;0.65;;;;;;;15.78;94.23;101339.84;5207100;28;20039;-73
2022/08/31 03:31:22;;;;;;;1.00;0.70;;;;;;;15.50;96.39;101348.13;5210085;28;20028;-74
2022/08/31 03:33:52;;;;;;;2.13;0.75;;;;;;;15.46;96.72;101346.53;5213565;28;20556;-73
2022/08/31 03:36:23;;;;;;;1.73;0.90;;;;;;;15.48;96.47;101355.25;5209041;28;20033;-73
2022/08/31 03:38:53;;;;;;;1.92;0.88;;;;;;;15.29;97.94;101349.03;5211975;28;20028;-74
2022/08/31 03:41:25;;;;;;;2.80;0.80;;;;;;;15.37;97.44;101348.72;5209234;28;20021;-74
2022/08/31 03:43:55;;;;;;;3.10;0.70;;;;;;;15.54;96.92;101346.22;5205384;28;20029;-74
2022/08/31 03:46:26;;;;;;;1.45;0.68;;;;;;;15.45;96.10;101355.38;5210687;28;20056;-74
2022/08/31 03:49:01;;;;;;;2.17;0.95;;;;;;;15.54;96.22;101354.13;5199201;28;20035;-74
2022/08/31 03:51:31;;;;;;;2.13;0.70;;;;;;;15.55;95.28;101346.13;5202930;28;20048;-74
2022/08/31 03:54:01;;;;;;;1.52;0.85;;;;;;;15.46;95.96;101351.81;5206796;28;20033;-74
2022/08/31 03:56:32;;;;;;;2.83;0.90;;;;;;;15.36;97.07;101345.22;5209547;28;20032;-72
2022/08/31 03:59:02;;;;;;;1.25;0.60;;;;;;;15.29;97.86;101348.16;5209743;28;20040;-74
2022/08/31 04:01:36;;;;;;;1.35;0.73;;;;;;;15.36;97.33;101347.84;5210234;28;20368;-74
2022/08/31 04:04:06;;;;;;;1.35;0.60;;;;;;;15.23;97.62;101354.56;5210474;28;20030;-74
2022/08/31 04:06:39;;;;;;;1.58;0.80;;;;;;;15.15;97.63;101358.44;5206464;28;20360;-73
2022/08/31 04:09:10;;;;;;;3.80;0.88;;;;;;;15.07;98.74;101361.38;5209340;28;20471;-74
2022/08/31 04:11:42;;;;;;;4.88;0.85;;;;;;;14.97;99.13;101354.75;5203784;28;20029;-73
2022/08/31 04:14:12;;;;;;;2.83;1.08;;;;;;;15.02;98.03;101360.69;5209350;28;20044;-74
2022/08/31 04:16:43;;;;;;;2.92;1.00;;;;;;;14.94;99.47;101362.78;5205874;28;20032;-73
2022/08/31 04:19:15;;;;;;;2.05;1.20;;;;;;;14.88;100.00;101365.66;5200127;28;20577;-74
2022/08/31 04:21:46;;;;;;;2.47;0.80;;;;;;;14.73;100.00;101368.06;5188850;28;20025;-73
2022/08/31 04:24:17;;;;;;;5.15;0.80;;;;;;;14.87;99.88;101369.19;5209224;28;20025;-74
2022/08/31 04:26:50;;;;;;;3.95;0.98;;;;;;;14.92;99.22;101374.28;5208802;28;20563;-73
2022/08/31 04:29:22;;;;;;;2.63;0.80;;;;;;;14.93;99.73;101376.88;5211318;28;20028;-74
2022/08/31 04:31:52;;;;;;;5.00;0.80;;;;;;;14.82;99.40;101368.53;5208594;28;20360;-73
2022/08/31 04:34:24;;;;;;;2.38;0.70;;;;;;;14.78;100.00;101373.13;5212237;28;20105;-74
2022/08/31 04:36:54;;;;;;;3.17;0.80;;;;;;;14.70;100.00;101372.56;5202908;28;20056;-74
2022/08/31 04:39:25;;;;;;;2.90;1.10;;;;;;;14.76;100.00;101377.63;5212024;28;20182;-74
2022/08/31 04:41:55;;;;;;;6.07;1.05;;;;;;;14.78;99.97;101381.88;5208296;28;20547;-73
2022/08/31 04:44:26;;;;;;;2.22;0.80;;;;;;;14.72;100.00;101386.53;5212350;28;20021;-74
2022/08/31 04:46:56;;;;;;;3.42;0.80;;;;;;;14.97;100.00;101388.97;5204598;28;20033;-74
2022/08/31 04:49:27;;;;;;;6.50;0.90;;;;;;;15.13;98.58;101389.19;5199718;28;20060;-74
2022/08/31 04:51:57;;;;;;;1.70;0.65;;;;;;;14.99;99.40;101400.31;5192845;28;20495;-73
2022/08/31 04:54:28;;;;;;;2.25;0.63;;;;;;;15.08;98.60;101399.94;5210848;28;20151;-73
2022/08/31 04:56:58;;;;;;;1.45;0.75;;;;;;;15.09;99.05;101399.03;5207194;28;20499;-74
2022/08/31 04:59:29;;;;;;;2.60;1.10;;;;;;;14.81;100.00;101400.19;5211203;28;20036;-74
2022/08/31 05:01:59;;;;;;;2.90;0.90;;;;;;;14.88;100.00;101399.88;5201903;28;20043;-74
2022/08/31 05:04:30;;;;;;;1.67;0.80;;;;;;;15.09;99.26;101403.41;5203647;28;20560;-74
2022/08/31 05:07:00;;;;;;;3.08;0.90;;;;;;;15.16;99.34;101399.63;5209362;28;20029;-74
2022/08/31 05:09:31;;;;;;;2.25;0.88;;;;;;;15.24;97.89;101398.41;5208475;28;20025;-74
2022/08/31 05:12:01;;;;;;;4.68;0.88;;;;;;;15.26;97.96;101401.81;5211119;28;20500;-74
2022/08/31 05:14:34;;;;;;;1.77;0.82;;;;;;;15.42;97.71;101397.66;5190154;28;20538;-74
2022/08/31 05:17:06;;;;;;;2.63;0.85;;;;;;;15.28;97.16;101396.47;5205726;28;20387;-73
2022/08/31 05:19:38;;;;;;;2.22;0.80;;;;;;;15.45;96.89;101405.44;5200689;28;20522;-73
2022/08/31 05:22:08;;;;;;;2.22;0.60;;;;;;;15.46;97.47;101404.50;5209312;28;20029;-73
2022/08/31 05:24:39;;;;;;;1.35;0.70;;;;;;;16.02;94.17;101405.53;5190841;28;20103;-73
2022/08/31 05:27:09;;;;;;;3.15;0.98;;;;;;;16.53;89.43;101403.19;5208758;28;20032;-75
2022/08/31 05:29:40;;;;;;;1.98;0.70;;;;;;;17.02;87.13;101403.44;5211403;28;20025;-74
2022/08/31 05:32:10;;;;;;;3.45;0.80;;;;;;;16.53;88.35;101413.75;5212710;28;20029;-74
2022/08/31 05:34:41;;;;;;;2.17;0.90;;;;;;;15.91;92.26;101418.31;5212621;28;20040;-74
2022/08/31 05:37:11;;;;;;;1.25;0.70;;;;;;;15.57;95.15;101420.69;5211140;28;20036;-74
2022/08/31 05:39:41;;;;;;;3.45;0.90;;;;;;;15.30;97.32;101428.91;5212297;28;20024;-74
2022/08/31 05:42:14;;;;;;;2.55;0.70;;;;;;;15.37;98.29;101423.31;5213924;28;20017;-74
2022/08/31 05:44:45;;;;;;;6.95;0.93;;;;;;;15.78;95.80;101427.72;5212111;28;20041;-73
2022/08/31 05:47:15;;;;;;;4.07;0.95;;;;;;;15.66;96.35;101422.97;5207670;28;20026;-74
2022/08/31 05:49:46;;;;;;;4.03;0.90;;;;;;;15.63;96.54;101425.72;5203426;28;20044;-74
2022/08/31 05:52:16;;;;;;;2.75;0.90;;;;;;;15.73;94.99;101428.81;5204934;28;20091;-74
2022/08/31 05:54:47;;;;;;;2.45;1.10;;;;;;;15.59;96.67;101426.78;5212123;28;20044;-74
2022/08/31 05:57:17;;;;;;;8.90;1.35;;;;;;;15.62;96.66;101426.66;5210737;28;20029;-74
2022/08/31 05:59:49;;;;;;;5.22;0.93;;;;;;;15.73;97.26;101434.94;5213686;28;20017;-73
2022/08/31 06:02:19;;;;;;;3.33;0.82;;;;;;;15.64;97.19;101435.34;5211651;28;20036;-73
2022/08/31 06:04:50;;;;;;;2.40;0.80;;;;;;;15.95;94.58;101427.84;5214640;28;20033;-73
2022/08/31 06:07:20;;;;;;;2.88;0.88;;;;;;;16.26;94.95;101425.56;5209977;28;20026;-73
2022/08/31 06:09:51;;;;;;;2.10;1.00;;;;;;;16.23;93.90;101428.31;5213879;28;20032;-74
2022/08/31 06:12:24;;;;;;;2.42;0.85;;;;;;;16.35;93.26;101427.78;5211113;28;20079;-74
2022/08/31 06:14:54;;;;;;;2.80;0.90;;;;;;;16.63;93.29;101424.72;5192902;28;20029;-73
2022/08/31 06:17:25;;;;;;;2.67;1.08;;;;;;;16.67;92.43;101424.53;5206005;28;20086;-74
2022/08/31 06:19:56;;;;;;;3.47;0.90;;;;;;;16.70;91.94;101427.00;5205720;28;20557;-73
2022/08/31 06:22:28;;;;;;;1.70;0.75;;;;;;;16.89;90.39;101427.84;5201029;28;20025;-74
2022/08/31 06:24:58;;;;;;;6.55;1.00;;;;;;;16.96;90.98;101429.28;5210054;28;20040;-74
2022/08/31 06:27:29;;;;;;;2.28;0.88;;;;;;;16.84;90.96;101435.16;5210260;28;20030;-74
2022/08/31 06:30:00;;;;;;;3.20;0.82;;;;;;;16.64;91.61;101440.50;5211701;28;20040;-73
2022/08/31 06:32:31;;;;;;;3.00;0.80;;;;;;;16.92;90.48;101443.53;5210723;28;20026;-74
2022/08/31 06:35:02;;;;;;;3.00;0.80;;;;;;;16.69;92.18;101441.16;5212068;28;20035;-73
2022/08/31 06:37:32;;;;;;;2.25;0.90;;;;;;;16.40;93.15;101446.91;5210232;28;20744;-73
2022/08/31 06:40:03;;;;;;;2.83;1.05;;;;;;;16.87;91.63;101450.84;5209777;28;20133;-74
2022/08/31 06:42:33;;;;;;;2.35;0.90;;;;;;;16.87;91.59;101441.16;5210678;28;20668;-73
2022/08/31 06:45:05;;;;;;;3.65;1.00;;;;;;;16.78;91.11;101452.13;5213373;28;20033;-73
2022/08/31 06:47:35;;;;;;;1.60;0.77;;;;;;;16.82;91.68;101452.84;5205099;28;20025;-73
2022/08/31 06:50:06;;;;;;;2.30;0.75;;;;;;;16.98;91.70;101445.91;5204178;28;20518;-73
2022/08/31 06:52:36;;;;;;;2.67;0.70;;;;;;;18.07;87.01;101448.28;5201658;28;20022;-73
2022/08/31 06:55:07;;;;;;;2.70;1.10;;;;;;;18.55;84.37;101445.66;5212797;28;20030;-74
2022/08/31 06:57:38;;;;;;;2.75;0.70;;;;;;;19.74;79.85;101451.16;5232086;22;20049;-77
2022/08/31 07:00:08;;;;;;;2.55;0.88;;;;;;;19.04;81.10;101452.63;5201371;28;20030;-78
2022/08/31 07:02:39;;;;;;;2.63;1.05;;;;;;;19.62;79.39;101445.72;5211348;28;20087;-77
2022/08/31 07:05:09;;;;;;;4.15;0.73;;;;;;;19.96;79.20;101443.63;5211157;28;20036;-78
2022/08/31 07:07:40;;;;;;;4.47;1.10;;;;;;;21.21;74.00;101442.72;5210688;28;20108;-78
2022/08/31 07:10:10;;;;;;;1.88;0.82;;;;;;;22.80;70.13;101435.09;5210607;28;20061;-77
2022/08/31 07:12:41;;;;;;;1.63;0.75;;;;;;;22.91;68.32;101444.97;5212373;28;20063;-78
2022/08/31 07:15:11;;;;;;;2.75;0.68;;;;;;;21.94;70.78;101446.66;5212420;28;20039;-77
2022/08/31 07:17:41;;;;;;;2.33;0.88;;;;;;;22.86;67.53;101439.97;5203040;28;20037;-77
2022/08/31 07:20:12;;;;;;;2.42;0.73;;;;;;;23.51;66.99;101444.00;5186272;28;20040;-77
2022/08/31 07:22:42;;;;;;;3.50;0.75;;;;;;;24.66;64.61;101442.09;5201987;28;20052;-78
2022/08/31 07:25:14;;;;;;;4.10;0.93;;;;;;;25.05;62.69;101434.38;5208744;28;20074;-78
2022/08/31 07:27:45;;;;;;;1.60;0.70;;;;;;;24.86;62.03;101434.16;5210414;28;20048;-78
2022/08/31 07:30:15;;;;;;;4.63;0.70;;;;;;;23.74;65.96;101445.78;5213107;28;20028;-78
2022/08/31 07:32:46;;;;;;;2.28;0.80;;;;;;;23.26;66.03;101461.97;5192982;28;20036;-77
2022/08/31 07:35:17;;;;;;;3.15;0.90;;;;;;;23.62;66.26;101452.06;5212599;28;20033;-77
2022/08/31 07:43:25;;;;;;;3.72;0.82;;;;;;;24.87;63.69;101438.53;5206227;28;20159;-78
2022/08/31 07:45:55;;;;;;;3.35;0.90;;;;;;;24.95;63.07;101446.78;5212961;28;20108;-78
2022/08/31 07:48:26;;;;;;;6.65;0.90;;;;;;;23.15;66.52;101459.22;5199701;28;20041;-78
2022/08/31 07:50:56;;;;;;;5.10;0.90;;;;;;;24.28;64.12;101459.41;5208783;28;20033;-78
2022/08/31 07:53:28;;;;;;;2.65;0.68;;;;;;;24.14;64.68;101455.16;5210588;28;20045;-78
2022/08/31 07:55:59;;;;;;;3.17;0.75;;;;;;;25.43;61.86;101448.16;5209862;28;20025;-78
2022/08/31 07:58:29;;;;;;;3.55;1.00;;;;;;;23.89;64.89;101460.66;5210761;28;20036;-78
2022/08/31 08:01:01;;;;;;;2.13;0.73;;;;;;;23.29;66.48;101462.59;5209859;28;20070;-78
2022/08/31 08:03:32;;;;;;;4.00;0.70;;;;;;;25.36;61.71;101456.81;5212201;28;20506;-78
2022/08/31 08:06:11;;;;;;;5.00;0.98;;;;;;;24.16;64.51;101466.56;5192185;28;20060;-77
2022/08/31 08:08:43;;;;;;;7.15;0.85;;;;;;;23.87;65.34;101469.78;5209495;28;20423;-77
2022/08/31 08:11:18;;;;;;;1.33;0.63;;;;;;;25.65;61.33;101458.75;5211384;28;20471;-78
2022/08/31 08:13:48;;;;;;;2.30;0.93;;;;;;;25.19;61.37;101465.38;5191277;28;20036;-78
2022/08/31 08:16:18;;;;;;;1.45;0.70;;;;;;;25.38;61.78;101465.56;5210122;28;20021;-78
2022/08/31 08:18:49;;;;;;;4.18;0.70;;;;;;;24.68;63.75;101469.56;5198693;28;20033;-78
2022/08/31 08:21:19;;;;;;;3.22;0.88;;;;;;;24.67;64.14;101461.66;5208838;28;20033;-77
2022/08/31 08:23:49;;;;;;;1.00;0.57;;;;;;;24.19;64.44;101470.84;5211166;28;20029;-78
2022/08/31 08:26:20;;;;;;;2.97;0.60;;;;;;;25.85;61.14;101463.31;5210881;28;20025;-78
2022/08/31 08:28:50;;;;;;;2.05;0.82;;;;;;;25.53;61.74;101465.16;5207163;28;20028;-78
2022/08/31 08:31:21;;;;;;;3.85;0.70;;;;;;;25.96;60.39;101473.13;5212261;28;20212;-78
2022/08/31 08:33:52;;;;;;;2.55;0.82;;;;;;;26.06;60.39;101468.69;5208139;28;20417;-78
2022/08/31 08:36:23;;;;;;;3.33;0.80;;;;;;;25.47;62.14;101472.84;5211972;28;20035;-78
2022/08/31 08:38:56;;;;;;;1.20;0.60;;;;;;;25.54;62.15;101474.88;5205312;28;20025;-79
2022/08/31 08:41:30;;;;;;;4.25;0.95;;;;;;;25.28;62.28;101486.06;5205066;28;20048;-78
2022/08/31 08:44:06;;;;;;;4.00;0.70;;;;;;;26.79;59.31;101478.28;5211104;28;20029;-78
2022/08/31 08:46:39;;;;;;;2.38;0.55;;;;;;;26.33;60.18;101479.72;5189072;28;20605;-77
2022/08/31 08:49:18;;;;;;;2.03;0.60;;;;;;;24.90;62.77;101489.13;5207157;28;20513;-75
2022/08/31 08:51:54;;;;;;;2.05;0.70;;;;;;;23.02;67.24;101491.25;5208833;28;20391;-77
2022/08/31 08:54:30;;;;;;;3.78;0.70;;;;;;;24.26;64.33;101488.97;5196889;28;20025;-77
2022/08/31 08:57:08;;;;;;;2.55;0.82;;;;;;;22.87;67.64;101497.69;5206292;28;20035;-77
2022/08/31 08:59:44;;;;;;;3.20;0.80;;;;;;;23.33;67.03;101489.91;5209556;28;20099;-77
2022/08/31 09:02:18;;;;;;;;;;;;;;;23.02;67.33;101493.06;5210147;28;20029;-77
2022/08/31 09:05:10;;;;;;;2.10;0.70;;;;;;;22.99;66.70;101494.13;5213266;28;19908;-77
2022/08/31 09:08:27;;;;;;;4.32;0.90;;;;;;;23.28;66.46;101481.38;5210566;28;20053;-77
2022/08/31 09:11:23;;;;;;;3.92;0.98;;;;;;;22.79;67.87;101492.06;5192361;28;20050;-77
2022/08/31 09:14:04;;;;;;;2.83;0.63;;;;;;;23.42;65.81;101487.41;5215901;28;20029;-76
2022/08/31 09:16:42;;;;;;;2.10;0.77;;;;;;;24.04;64.88;101483.53;5208759;28;20029;-74
2022/08/31 09:19:16;;;;;;;3.65;0.93;;;;;;;23.94;65.37;101487.03;5194480;28;20025;-77
2022/08/31 09:21:46;;;;;;;4.90;1.00;;;;;;;22.49;67.35;101497.84;5213102;28;20264;-77
2022/08/31 09:24:28;;;;;;;6.85;0.77;;;;;;;21.67;69.97;101491.09;5212917;28;20016;-77
2022/08/31 09:27:18;;;;;;;1.77;0.70;;;;;;;21.58;71.08;101497.00;5209115;28;20028;-77
2022/08/31 09:30:01;;;;;;;2.13;0.70;;;;;;;22.03;68.62;101496.59;5214451;28;20040;-77
2022/08/31 09:32:35;;;;;;;3.13;0.80;;;;;;;21.81;69.84;101491.03;5209183;28;20033;-76
2022/08/31 09:35:22;;;;;;;2.95;0.80;;;;;;;22.01;69.07;101488.75;5214691;28;20103;-77
2022/08/31 09:38:02;;;;;;;3.45;0.88;;;;;;;21.60;69.79;101482.63;5196418;28;20045;-77
2022/08/31 09:40:52;;;;;;;3.00;0.82;;;;;;;21.69;69.48;101484.72;5209084;28;20037;-74
2022/08/31 09:43:23;;;;;;;2.70;0.50;;;;;;;21.66;69.26;101470.75;5210881;28;20035;-77
2022/08/31 09:46:07;;;;;;;5.60;0.70;;;;;;;21.72;69.20;101481.03;5193463;28;20511;-77
2022/08/31 09:48:55;;;;;;;3.35;1.33;;;;;;;21.76;69.42;101471.88;5202013;28;20498;-76
2022/08/31 09:51:37;;;;;;;3.75;0.60;;;;;;;22.40;68.25;101466.53;5207394;28;20025;-77
2022/08/31 09:57:08;;;;;;;3.33;0.70;;;;;;;22.22;65.13;101462.44;5212354;28;20555;-76
2022/08/31 09:59:50;;;;;;;2.03;0.70;;;;;;;22.30;64.52;101465.41;5211942;28;20024;-77
2022/08/31 10:02:21;;;;;;;3.08;0.90;;;;;;;21.75;66.36;101464.84;5212373;28;20013;-77
2022/08/31 10:04:55;;;;;;;2.08;0.60;;;;;;;21.84;65.65;101458.88;5215105;28;20079;-76
2022/08/31 10:07:50;;;;;;;2.25;0.90;;;;;;;22.09;64.89;101457.09;5206434;28;20261;-77
2022/08/31 10:10:31;;;;;;;1.40;0.60;;;;;;;21.82;65.11;101459.00;5210389;28;20237;-77
2022/08/31 10:13:15;;;;;;;1.73;0.68;;;;;;;22.51;64.86;101461.28;5208720;28;20550;-76
2022/08/31 10:15:52;;;;;;;3.28;1.00;;;;;;;21.66;66.21;101462.78;5211661;28;20394;-77
2022/08/31 10:18:31;;;;;;;1.38;0.70;;;;;;;22.20;64.72;101453.69;5202638;28;20483;-77
2022/08/31 10:21:20;;;;;;;1.35;0.70;;;;;;;22.05;64.73;101458.28;5209420;28;20041;-76
2022/08/31 10:23:57;;;;;;;3.17;0.85;;;;;;;22.58;62.74;101455.41;5213479;28;20470;-76
2022/08/31 10:26:45;;;;;;;2.97;0.63;;;;;;;22.05;64.35;101462.75;5204533;28;20036;-76
2022/08/31 10:29:27;;;;;;;3.83;0.73;;;;;;;21.75;64.97;101459.50;5211405;28;20025;-76
2022/08/31 10:32:02;;;;;;;1.98;0.80;;;;;;;22.50;65.62;101451.56;5207179;28;20037;-77
2022/08/31 10:37:49;;;;;;;2.67;0.70;;;;;;;22.06;63.94;101446.66;5209438;28;20555;-76
2022/08/31 10:40:27;;;;;;;1.83;0.70;;;;;;;22.46;63.31;101453.59;5214854;28;20067;-77
2022/08/31 10:43:09;;;;;;;1.08;0.57;;;;;;;22.36;63.58;101438.34;5207736;28;20025;-77
2022/08/31 10:45:43;;;;;;;2.47;0.60;;;;;;;22.46;64.08;101450.09;5194403;28;20465;-77
2022/08/31 10:48:16;;;;;;;1.33;0.63;;;;;;;22.14;64.29;101457.66;5185726;28;20025;-76
2022/08/31 10:51:04;;;;;;;6.10;1.00;;;;;;;21.72;63.51;101452.56;5212313;28;20374;-76
2022/08/31 10:54:05;;;;;;;1.55;0.65;;;;;;;21.68;62.52;101451.09;5192752;28;20487;-76
2022/08/31 10:56:57;;;;;;;2.33;0.80;;;;;;;21.50;63.21;101449.63;5205981;28;20112;-76
2022/08/31 10:59:41;;;;;;;5.43;1.10;;;;;;;21.79;62.71;101447.69;5207304;28;20453;-77
2022/08/31 11:02:34;;;;;;;4.10;0.90;;;;;;;22.08;62.89;101439.41;5210042;28;20119;-76
2022/08/31 11:05:29;;;;;;;3.00;0.80;;;;;;;21.41;62.18;101441.41;5209709;28;20025;-77
2022/08/31 11:08:05;;;;;;;3.30;0.70;;;;;;;21.92;62.17;101440.59;5205584;28;20121;-76
2022/08/31 11:10:43;;;;;;;2.30;0.80;;;;;;;21.50;61.15;101438.97;5212157;28;20040;-77
2022/08/31 11:13:46;;;;;;;2.05;0.75;;;;;;;21.61;61.91;101432.94;5195038;28;20211;-76
2022/08/31 11:16:35;;;;;;;6.18;0.80;;;;;;;22.07;61.44;101431.53;5210788;28;20033;-77
2022/08/31 11:19:30;;;;;;;3.47;0.73;;;;;;;21.86;61.38;101435.66;5200894;28;20122;-76
2022/08/31 11:22:35;;;;;;;2.72;0.70;;;;;;;22.13;61.13;101420.44;5206980;28;20037;-76
2022/08/31 11:25:30;;;;;;;3.47;0.73;;;;;;;22.01;61.26;101419.50;5200783;28;20021;-76
2022/08/31 11:28:08;;;;;;;2.13;0.65;;;;;;;21.93;61.61;101426.31;5205211;28;20171;-76
2022/08/31 11:30:45;;;;;;;1.90;0.75;;;;;;;21.92;61.28;101420.13;5211319;28;20047;-76
2022/08/31 11:33:20;;;;;;;4.30;0.80;;;;;;;21.81;60.74;101424.47;5212557;28;20021;-77
2022/08/31 11:36:04;;;;;;;5.07;0.60;;;;;;;22.20;60.65;101419.06;5209843;28;20028;-76
2022/08/31 11:38:51;;;;;;;3.05;0.70;;;;;;;22.40;60.31;101418.56;5206446;28;20030;-76
2022/08/31 11:41:46;;;;;;;1.77;0.60;;;;;;;21.74;59.54;101420.53;5209856;28;20032;-76
2022/08/31 11:44:28;;;;;;;2.60;0.80;;;;;;;21.92;58.43;101406.81;5212043;28;20288;-76
2022/08/31 11:47:07;;;;;;;3.00;0.80;;;;;;;22.13;58.76;101412.47;5202805;28;20018;-76
2022/08/31 11:49:48;;;;;;;3.92;0.80;;;;;;;22.17;57.41;101404.16;5188581;28;20033;-76
2022/08/31 11:52:28;;;;;;;2.67;0.52;;;;;;;21.84;59.57;101402.97;5206315;28;20549;-76
2022/08/31 11:55:13;;;;;;;3.78;0.65;;;;;;;22.05;58.41;101396.19;5199506;28;20038;-77
2022/08/31 11:58:05;;;;;;;4.70;0.70;;;;;;;21.96;59.61;101394.16;5209269;28;20056;-76
2022/08/31 12:00:47;;;;;;;2.55;0.60;;;;;;;22.19;57.91;101394.25;5189109;28;20079;-76
2022/08/31 12:03:45;;;;;;;1.45;0.60;;;;;;;22.19;58.09;101393.38;5210241;28;20022;-77
2022/08/31 12:06:24;;;;;;;2.38;0.68;;;;;;;22.13;57.97;101396.50;5210042;28;20029;-76
2022/08/31 12:09:28;;;;;;;1.63;0.55;;;;;;;22.44;57.25;101382.75;5207555;28;20484;-76
2022/08/31 12:12:20;;;;;;;1.48;0.73;;;;;;;22.60;57.71;101378.00;5205660;28;20025;-76